createdAt,value
2022-12-26T00:02:35.254Z,67.25
2022-12-26T00:07:31.585Z,66.03
2022-12-26T00:12:27.814Z,64.97
2022-12-26T00:17:24.010Z,63.20
2022-12-26T00:22:20.208Z,61.85
2022-12-26T00:27:16.451Z,64.55
2022-12-26T00:32:12.659Z,66.32
2022-12-26T00:37:08.972Z,66.45
2022-12-26T00:42:05.184Z,67.95
2022-12-26T00:47:01.433Z,67.72
2022-12-26T00:51:57.701Z,65.72
2022-12-26T00:56:53.931Z,64.05
2022-12-26T01:01:50.355Z,66.22
2022-12-26T01:06:46.736Z,66.70
2022-12-26T01:11:43.714Z,61.67
2022-12-26T01:16:41.223Z,65.28
2022-12-26T01:21:37.671Z,61.03
2022-12-26T01:26:33.873Z,56.78
2022-12-26T01:31:30.216Z,58.83
2022-12-26T01:36:26.523Z,58.20
2022-12-26T01:41:22.930Z,60.83
2022-12-26T01:46:21.000Z,58.13
2022-12-26T01:51:18.972Z,60.13
2022-12-26T01:56:18.170Z,58.80
2022-12-26T02:01:14.760Z,61.58
2022-12-26T02:06:12.457Z,59.33
2022-12-26T02:11:27.371Z,61.60
2022-12-26T02:16:25.587Z,58.78
2022-12-26T02:21:37.145Z,60.13
2022-12-26T02:26:51.980Z,63.00
2022-12-26T02:32:05.845Z,62.25
2022-12-26T02:37:05.126Z,63.67
2022-12-26T02:42:19.898Z,63.83
2022-12-26T02:47:34.874Z,64.40
2022-12-26T02:52:54.767Z,61.88
2022-12-26T02:58:09.695Z,62.45
2022-12-26T03:03:32.116Z,60.47
2022-12-26T03:08:50.386Z,61.42
2022-12-26T03:13:46.997Z,60.88
2022-12-26T03:18:58.684Z,61.58
2022-12-26T03:23:56.805Z,63.47
2022-12-26T03:28:53.147Z,61.42
2022-12-26T03:34:08.423Z,62.13
2022-12-26T03:39:07.645Z,60.97
2022-12-26T03:44:27.324Z,60.30
2022-12-26T03:49:50.622Z,66.07
2022-12-26T03:55:15.265Z,62.67
2022-12-26T04:00:31.350Z,61.97
2022-12-26T04:05:46.371Z,62.20
2022-12-26T04:11:20.035Z,63.47
2022-12-26T04:16:36.446Z,61.65
2022-12-26T04:22:03.629Z,58.75
2022-12-26T04:27:21.331Z,60.72
2022-12-26T04:32:47.950Z,58.67
2022-12-26T04:38:03.504Z,56.80
2022-12-26T04:43:49.785Z,58.20
2022-12-26T04:49:00.383Z,58.33
2022-12-26T04:53:56.596Z,57.88
2022-12-26T04:58:52.788Z,58.72
2022-12-26T05:04:07.898Z,60.78
2022-12-26T05:09:22.756Z,62.45
2022-12-26T05:14:19.042Z,63.35
2022-12-26T05:19:34.805Z,62.53
2022-12-26T05:24:55.549Z,61.00
2022-12-26T05:29:51.915Z,58.17
2022-12-26T05:34:48.096Z,60.17
2022-12-26T05:39:44.273Z,62.22
2022-12-26T05:44:40.502Z,59.85
2022-12-26T05:49:36.732Z,61.33
2022-12-26T05:54:32.920Z,60.08
2022-12-26T05:59:29.344Z,58.88
2022-12-26T06:04:26.951Z,58.72
2022-12-26T06:09:23.582Z,64.32
2022-12-26T06:14:19.827Z,60.72
2022-12-26T06:19:16.166Z,64.80
2022-12-26T06:24:13.929Z,60.20
2022-12-26T06:29:10.147Z,61.08
2022-12-26T06:34:06.400Z,58.92
2022-12-26T06:39:02.617Z,56.95
2022-12-26T06:43:59.891Z,57.92
2022-12-26T06:48:56.127Z,55.45
2022-12-26T06:53:52.891Z,59.45
2022-12-26T06:58:53.310Z,56.75
2022-12-26T07:03:52.059Z,60.10
2022-12-26T07:08:48.499Z,59.40
2022-12-26T07:13:44.766Z,58.30
2022-12-26T07:18:41.072Z,57.03
2022-12-26T07:23:37.645Z,61.80
2022-12-26T07:28:34.273Z,60.22
2022-12-26T07:33:30.886Z,60.35
2022-12-26T07:38:27.063Z,61.95
2022-12-26T07:43:23.666Z,64.82
2022-12-26T07:48:19.912Z,64.28
2022-12-26T07:53:16.145Z,64.95
2022-12-26T07:58:12.412Z,67.10
2022-12-26T08:03:09.204Z,66.88
2022-12-26T08:08:05.684Z,69.88
2022-12-26T08:13:01.932Z,66.53
2022-12-26T08:17:58.170Z,64.55
2022-12-26T08:27:55.532Z,69.20
2022-12-26T08:32:51.739Z,67.07
2022-12-26T08:37:47.953Z,69.20
2022-12-26T08:42:56.101Z,69.18
2022-12-26T08:48:02.862Z,70.65
2022-12-26T08:52:59.095Z,67.97
2022-12-26T08:57:55.354Z,67.25
2022-12-26T09:02:51.796Z,68.80
2022-12-26T09:07:48.173Z,69.30
2022-12-26T09:12:44.353Z,68.43
2022-12-26T09:17:40.561Z,70.07
2022-12-26T09:22:52.112Z,67.43
2022-12-26T09:27:50.934Z,67.88
2022-12-26T09:32:50.533Z,64.63
2022-12-26T09:37:46.762Z,63.53
2022-12-26T09:42:45.912Z,63.20
2022-12-26T09:47:50.340Z,61.75
2022-12-26T09:52:51.745Z,59.60
2022-12-26T09:57:50.626Z,58.13
2022-12-26T10:02:52.361Z,57.63
2022-12-26T10:07:51.519Z,54.60
2022-12-26T10:13:11.395Z,57.08
2022-12-26T10:18:10.485Z,56.83
2022-12-26T10:23:06.697Z,52.70
2022-12-26T10:28:04.165Z,54.33
2022-12-26T10:33:02.770Z,52.92
2022-12-26T10:38:01.852Z,49.92
2022-12-26T10:43:00.519Z,52.10
2022-12-26T10:47:57.229Z,48.88
2022-12-26T10:52:54.106Z,50.45
2022-12-26T10:57:51.966Z,50.28
2022-12-26T11:03:05.770Z,50.20
2022-12-26T11:08:07.028Z,49.45
2022-12-26T11:13:06.196Z,45.55
2022-12-26T11:18:08.642Z,46.45
2022-12-26T11:23:26.266Z,42.38
2022-12-26T11:28:28.793Z,43.67
2022-12-26T11:33:29.463Z,41.50
2022-12-26T11:38:42.749Z,40.17
2022-12-26T11:43:41.337Z,39.13
2022-12-26T11:48:38.663Z,38.15
2022-12-26T11:53:34.914Z,37.45
2022-12-26T11:58:32.131Z,39.05
2022-12-26T12:03:28.432Z,36.30
2022-12-26T12:08:29.681Z,34.55
2022-12-26T12:13:28.944Z,35.00
2022-12-26T12:18:37.205Z,36.30
2022-12-26T12:23:33.427Z,39.75
2022-12-26T12:28:48.542Z,44.15
2022-12-26T12:34:03.272Z,45.05
2022-12-26T12:38:59.499Z,47.55
2022-12-26T12:44:04.268Z,45.25
2022-12-26T12:49:09.451Z,43.08
2022-12-26T12:54:23.864Z,44.80
2022-12-26T12:59:29.915Z,40.88
2022-12-26T13:04:29.101Z,38.15
2022-12-26T13:09:29.141Z,36.78
2022-12-26T13:14:34.333Z,36.88
2022-12-26T13:19:30.498Z,39.95
2022-12-26T13:24:41.357Z,42.92
2022-12-26T13:29:41.761Z,41.05
2022-12-26T13:34:38.027Z,37.30
2022-12-26T13:39:35.579Z,26.13
2022-12-26T13:44:32.916Z,17.40
2022-12-26T13:49:31.159Z,13.50
2022-12-26T13:54:28.076Z,12.60
2022-12-26T13:59:30.922Z,13.65
2022-12-26T14:04:36.047Z,15.13
2022-12-26T14:09:39.977Z,16.95
2022-12-26T14:14:36.156Z,18.95
2022-12-26T14:19:51.421Z,20.65
2022-12-26T14:25:02.586Z,25.70
2022-12-26T14:30:06.030Z,27.40
2022-12-26T14:35:18.271Z,27.58
2022-12-26T14:40:14.478Z,30.77
2022-12-26T14:45:38.333Z,34.83
2022-12-26T14:50:37.501Z,26.90
2022-12-26T14:55:47.934Z,30.48
2022-12-26T15:00:44.383Z,30.25
2022-12-26T15:05:44.102Z,31.65
2022-12-26T15:11:08.029Z,34.50
2022-12-26T15:16:04.259Z,36.25
2022-12-26T15:21:00.568Z,34.42
2022-12-26T15:26:06.045Z,38.28
2022-12-26T15:31:10.172Z,37.88
2022-12-26T15:36:25.009Z,39.17
2022-12-26T15:41:33.091Z,37.42
2022-12-26T15:46:35.339Z,37.85
2022-12-26T15:51:55.899Z,35.58
2022-12-26T15:57:02.758Z,35.88
2022-12-26T16:01:59.344Z,34.85
2022-12-26T16:07:21.272Z,35.67
2022-12-26T16:12:25.765Z,34.90
2022-12-26T16:17:22.161Z,32.25
2022-12-26T16:22:43.888Z,27.35
2022-12-26T16:27:40.423Z,22.17
2022-12-26T16:32:37.843Z,20.50
2022-12-26T16:37:34.131Z,20.15
2022-12-26T16:42:31.750Z,18.95
2022-12-26T16:47:30.010Z,19.98
2022-12-26T16:52:42.097Z,19.08
2022-12-26T16:57:42.876Z,17.45
2022-12-26T17:02:44.549Z,16.55
2022-12-26T17:07:44.113Z,16.43
2022-12-26T17:12:40.307Z,16.80
2022-12-26T17:17:37.624Z,16.63
2022-12-26T17:22:35.101Z,17.02
2022-12-26T17:27:32.223Z,16.75
2022-12-26T17:32:28.431Z,17.33
2022-12-26T17:37:24.976Z,16.08
2022-12-26T17:42:21.469Z,17.45
2022-12-26T17:47:25.305Z,16.58
2022-12-26T17:52:23.764Z,14.85
2022-12-26T17:57:24.064Z,16.58
2022-12-26T18:02:20.829Z,16.75
2022-12-26T18:07:31.809Z,15.52
2022-12-26T18:12:28.301Z,14.98
2022-12-26T18:17:24.580Z,13.88
2022-12-26T18:22:20.764Z,13.93
2022-12-26T18:27:18.220Z,13.73
2022-12-26T18:32:28.492Z,13.90
2022-12-26T18:37:26.206Z,14.30
2022-12-26T18:42:22.817Z,14.27
2022-12-26T18:47:19.686Z,15.52
2022-12-26T18:52:17.567Z,15.70
2022-12-26T18:57:18.986Z,16.50
2022-12-26T19:02:16.865Z,15.18
2022-12-26T19:07:13.165Z,16.83
2022-12-26T19:12:09.384Z,15.48
2022-12-26T19:17:05.747Z,15.15
2022-12-26T19:22:02.123Z,17.08
2022-12-26T19:26:58.333Z,15.02
2022-12-26T19:31:56.257Z,15.05
2022-12-26T19:36:52.552Z,14.68
2022-12-26T19:41:48.766Z,15.52
2022-12-26T19:46:45.007Z,14.80
2022-12-26T19:51:41.272Z,15.00
2022-12-26T19:56:37.497Z,15.85
2022-12-26T20:01:33.843Z,13.27
2022-12-26T20:06:31.807Z,14.82
2022-12-26T20:11:29.740Z,15.88
2022-12-26T20:21:43.078Z,16.95
2022-12-26T20:26:39.636Z,15.30
2022-12-26T20:31:36.465Z,15.38
2022-12-26T20:36:33.745Z,15.27
2022-12-26T20:41:29.952Z,14.98
2022-12-26T20:46:27.322Z,16.45
2022-12-26T20:51:25.814Z,15.75
2022-12-26T20:56:22.810Z,15.95
2022-12-26T21:01:20.723Z,16.00
2022-12-26T21:06:18.485Z,16.00
2022-12-26T21:11:17.648Z,15.95
2022-12-26T21:16:19.127Z,18.27
2022-12-26T21:21:17.263Z,16.52
2022-12-26T21:26:13.741Z,16.00
2022-12-26T21:31:10.540Z,17.20
2022-12-26T21:36:10.667Z,16.42
2022-12-26T21:41:08.407Z,15.00
2022-12-26T21:46:06.423Z,18.13
2022-12-26T21:51:04.031Z,18.30
2022-12-26T21:56:04.240Z,18.33
2022-12-26T22:01:00.439Z,18.83
2022-12-26T22:05:56.919Z,19.60
2022-12-26T22:11:12.116Z,21.17
2022-12-26T22:16:09.509Z,21.20
2022-12-26T22:21:07.640Z,21.35
2022-12-26T22:26:04.382Z,20.67
2022-12-26T22:31:01.270Z,22.17
2022-12-26T22:36:07.606Z,21.50
2022-12-26T22:41:04.574Z,21.38
2022-12-26T22:46:00.867Z,22.15
2022-12-26T22:50:57.399Z,22.55
2022-12-26T22:55:58.472Z,23.40
2022-12-26T23:00:54.736Z,25.35
2022-12-26T23:05:51.614Z,21.40
2022-12-26T23:10:48.627Z,21.23
2022-12-26T23:16:05.174Z,22.08
2022-12-26T23:21:25.576Z,21.88
2022-12-26T23:26:21.779Z,21.33
2022-12-26T23:31:18.075Z,21.42
2022-12-26T23:36:14.307Z,20.88
2022-12-26T23:41:10.563Z,22.58
2022-12-26T23:46:10.486Z,21.00
2022-12-26T23:51:07.676Z,24.50
2022-12-26T23:56:06.409Z,22.40
